Au Sable Chasm, NY

8:51 AM EDT on August 27, 2014 (GMT -0400)
RAWS SCHUYLER FALLS NY US | Change Station
CLOSE
Current Station
Personal Weather Station
Location: Peru, NY
Elevation: 649 ft
Nearby Weather Stations

Elev 649 ft 44.60 °N, 73.60 °W | Updated 50 minutes ago

Partly Cloudy
Partly Cloudy
72 °F
Feels Like 73 °F
N
1
Wind Variable Wind from South
Gusts 6.0 mph

Today
High -- | Low -- °F
--% Chance of Precip.
Yesterday
High -- | Low -- °F
Precip. -- in
6:10 AM 7:39 PM
Waxing Crescent, 3% visible
Pressure 29.94 in
Visibility 10.0 miles
Clouds Few 3900 ft
Heat Index 73 °F
Dew Point 64 °F
Humidity 77%
Rainfall 0.00 in
Snow Depth Not available.
UV 1 out of 12
Pollen 8.30 out of 12
Air Quality Not available.
Flu Activity Not available.
METAR KPBG 271153Z AUTO 00000KT 10SM FEW039 24/18 A2994 RMK AO2 SLP138 T02390183 10239 20183 51011

More Conditions Fewer Conditions

Pressure 29.94 in
Visibility 10.0 miles
Clouds Few 3900 ft
Heat Index 73 °F
Dew Point 64 °F
Humidity 77%
Rainfall 0.00 in
Snow Depth Not available.
UV 1 out of 12
Pollen 8.30 out of 12
Air Quality Not available.
Flu Activity Not available.
METAR KPBG 271153Z AUTO 00000KT 10SM FEW039 24/18 A2994 RMK AO2 SLP138 T02390183 10239 20183 51011

More Conditions Fewer Conditions

10-Day Weather Forecast

Almanac

Astronomy

Aug. 27, 2014 Rise Set
Actual Time 6:10 AM EDT 7:39 PM EDT
Civil Twilight 5:40 AM EDT 8:09 PM EDT
Nautical Twilight 5:03 AM EDT 8:46 PM EDT
Astronomical Twilight 4:23 AM EDT 9:25 PM EDT
Moon 8:10 AM EDT 8:22 PM EDT
Length of Visible Light 14h 29m
Length of Day
13h 28m
Tomorrow will be 2m 57s shorter.
Waxing Crescent, 3% of the Moon is Illuminated
Today
Waxing Crescent
Sep 2
First Quarter
Sep 8
Full
Sep 15
Last Quarter
Sep 24
New

Today's Extremes

State Highs State Lows

Community

WunderPhotos

Upload Photos

1,747,676 photos uploaded!

Nearby

Air Quality

  Air Quality AQ Index Pollutant
Wednesday Good
OZONE
Wednesday Good
PM2.5

Snow Depth

Station Depth Elevation
No new snow has been reported.

Earthquake Activity

City Distance Mag. Time & Date
No recent earthquake activity has been reported nearby.
Minimum magnitude displayed is 2.5.

Coastal Water Temperatures

Place Temperature
No Stations Reporting

Nearby Weather Stations